sensor_id;sensor_type;location;lat;lon;timestamp;temperature;humidity
17348;DHT22;8791;50.876;4.342;2022-08-03T00:00:17;23.90;99.90
17348;DHT22;8791;50.876;4.342;2022-08-03T00:02:45;24.00;99.90
17348;DHT22;8791;50.876;4.342;2022-08-03T00:05:12;24.00;99.90
17348;DHT22;8791;50.876;4.342;2022-08-03T00:07:39;24.00;99.90
17348;DHT22;8791;50.876;4.342;2022-08-03T00:10:06;24.00;99.90
17348;DHT22;8791;50.876;4.342;2022-08-03T00:12:33;23.90;99.90
17348;DHT22;8791;50.876;4.342;2022-08-03T00:15:01;23.90;99.90
17348;DHT22;8791;50.876;4.342;2022-08-03T00:17:28;23.90;99.90
17348;DHT22;8791;50.876;4.342;2022-08-03T00:19:56;23.90;99.90
17348;DHT22;8791;50.876;4.342;2022-08-03T00:22:23;23.90;99.90
17348;DHT22;8791;50.876;4.342;2022-08-03T00:24:50;23.90;99.90
17348;DHT22;8791;50.876;4.342;2022-08-03T00:27:16;23.70;99.90
17348;DHT22;8791;50.876;4.342;2022-08-03T00:29:43;23.80;99.90
17348;DHT22;8791;50.876;4.342;2022-08-03T00:32:10;23.70;99.90
17348;DHT22;8791;50.876;4.342;2022-08-03T00:34:37;23.70;99.90
17348;DHT22;8791;50.876;4.342;2022-08-03T00:37:05;23.70;99.90
17348;DHT22;8791;50.876;4.342;2022-08-03T00:39:32;23.70;99.90
17348;DHT22;8791;50.876;4.342;2022-08-03T00:42:01;23.70;99.90
17348;DHT22;8791;50.876;4.342;2022-08-03T00:44:28;23.50;99.90
17348;DHT22;8791;50.876;4.342;2022-08-03T00:46:55;23.50;99.90
17348;DHT22;8791;50.876;4.342;2022-08-03T00:49:22;23.40;99.90
17348;DHT22;8791;50.876;4.342;2022-08-03T00:51:50;23.50;99.90
17348;DHT22;8791;50.876;4.342;2022-08-03T00:54:19;23.40;99.90
17348;DHT22;8791;50.876;4.342;2022-08-03T00:56:46;23.30;99.90
17348;DHT22;8791;50.876;4.342;2022-08-03T00:59:13;23.30;99.90
17348;DHT22;8791;50.876;4.342;2022-08-03T01:01:41;23.20;99.90
17348;DHT22;8791;50.876;4.342;2022-08-03T01:04:08;23.20;99.90
17348;DHT22;8791;50.876;4.342;2022-08-03T01:06:41;23.20;99.90
17348;DHT22;8791;50.876;4.342;2022-08-03T01:09:15;23.10;99.90
17348;DHT22;8791;50.876;4.342;2022-08-03T01:11:48;23.10;99.90
17348;DHT22;8791;50.876;4.342;2022-08-03T01:14:21;23.00;99.90
17348;DHT22;8791;50.876;4.342;2022-08-03T01:16:55;23.10;99.90
17348;DHT22;8791;50.876;4.342;2022-08-03T01:19:37;23.10;99.90
17348;DHT22;8791;50.876;4.342;2022-08-03T01:22:16;22.90;99.90
17348;DHT22;8791;50.876;4.342;2022-08-03T01:24:49;22.90;99.90
17348;DHT22;8791;50.876;4.342;2022-08-03T01:27:20;22.90;99.90
17348;DHT22;8791;50.876;4.342;2022-08-03T01:29:58;22.80;99.90
17348;DHT22;8791;50.876;4.342;2022-08-03T01:32:33;22.80;99.90
17348;DHT22;8791;50.876;4.342;2022-08-03T01:35:03;22.80;99.90
17348;DHT22;8791;50.876;4.342;2022-08-03T01:37:36;22.90;99.90
17348;DHT22;8791;50.876;4.342;2022-08-03T01:40:05;22.80;99.90
17348;DHT22;8791;50.876;4.342;2022-08-03T01:42:33;22.80;99.90
17348;DHT22;8791;50.876;4.342;2022-08-03T01:45:04;22.80;99.90
17348;DHT22;8791;50.876;4.342;2022-08-03T01:47:33;22.70;99.90
17348;DHT22;8791;50.876;4.342;2022-08-03T01:50:01;22.80;99.90
17348;DHT22;8791;50.876;4.342;2022-08-03T01:52:29;22.90;99.90
17348;DHT22;8791;50.876;4.342;2022-08-03T01:54:58;22.80;99.90
17348;DHT22;8791;50.876;4.342;2022-08-03T01:57:27;22.70;99.90
17348;DHT22;8791;50.876;4.342;2022-08-03T01:59:56;22.70;99.90
17348;DHT22;8791;50.876;4.342;2022-08-03T02:02:26;22.70;99.90
17348;DHT22;8791;50.876;4.342;2022-08-03T02:04:55;22.80;99.90
17348;DHT22;8791;50.876;4.342;2022-08-03T02:07:23;22.60;99.90
17348;DHT22;8791;50.876;4.342;2022-08-03T02:09:51;22.50;99.90
17348;DHT22;8791;50.876;4.342;2022-08-03T02:12:21;22.70;99.90
17348;DHT22;8791;50.876;4.342;2022-08-03T02:14:49;22.60;99.90
17348;DHT22;8791;50.876;4.342;2022-08-03T02:17:18;22.50;99.90
17348;DHT22;8791;50.876;4.342;2022-08-03T02:19:47;22.30;99.90
17348;DHT22;8791;50.876;4.342;2022-08-03T02:22:16;22.30;99.90
17348;DHT22;8791;50.876;4.342;2022-08-03T02:24:43;22.30;99.90
17348;DHT22;8791;50.876;4.342;2022-08-03T02:27:17;22.30;99.90
17348;DHT22;8791;50.876;4.342;2022-08-03T02:29:47;22.40;99.90
17348;DHT22;8791;50.876;4.342;2022-08-03T02:32:17;22.40;99.90
17348;DHT22;8791;50.876;4.342;2022-08-03T02:34:50;22.50;99.90
17348;DHT22;8791;50.876;4.342;2022-08-03T02:37:18;22.40;99.90
17348;DHT22;8791;50.876;4.342;2022-08-03T02:39:48;22.40;99.90
17348;DHT22;8791;50.876;4.342;2022-08-03T02:42:20;22.20;99.90
17348;DHT22;8791;50.876;4.342;2022-08-03T02:44:50;22.10;99.90
17348;DHT22;8791;50.876;4.342;2022-08-03T02:47:19;22.00;99.90
17348;DHT22;8791;50.876;4.342;2022-08-03T02:49:49;22.10;99.90
17348;DHT22;8791;50.876;4.342;2022-08-03T02:52:17;22.10;99.90
17348;DHT22;8791;50.876;4.342;2022-08-03T02:54:45;22.10;99.90
17348;DHT22;8791;50.876;4.342;2022-08-03T02:57:14;22.10;99.90
17348;DHT22;8791;50.876;4.342;2022-08-03T02:59:44;22.10;99.90
17348;DHT22;8791;50.876;4.342;2022-08-03T03:02:11;22.10;99.90
17348;DHT22;8791;50.876;4.342;2022-08-03T03:04:39;22.20;99.90
17348;DHT22;8791;50.876;4.342;2022-08-03T03:07:10;22.20;99.90
17348;DHT22;8791;50.876;4.342;2022-08-03T03:09:38;22.10;99.90
17348;DHT22;8791;50.876;4.342;2022-08-03T03:12:07;22.00;99.90
17348;DHT22;8791;50.876;4.342;2022-08-03T03:14:35;21.90;99.90
17348;DHT22;8791;50.876;4.342;2022-08-03T03:17:03;21.80;99.90
17348;DHT22;8791;50.876;4.342;2022-08-03T03:19:31;21.80;99.90
17348;DHT22;8791;50.876;4.342;2022-08-03T03:21:59;21.80;99.90
17348;DHT22;8791;50.876;4.342;2022-08-03T03:24:29;21.70;99.90
17348;DHT22;8791;50.876;4.342;2022-08-03T03:26:57;21.80;99.90
17348;DHT22;8791;50.876;4.342;2022-08-03T03:29:24;21.90;99.90
17348;DHT22;8791;50.876;4.342;2022-08-03T03:31:51;22.00;99.90
17348;DHT22;8791;50.876;4.342;2022-08-03T03:34:18;22.10;99.90
17348;DHT22;8791;50.876;4.342;2022-08-03T03:36:46;22.00;99.90
17348;DHT22;8791;50.876;4.342;2022-08-03T03:39:13;21.90;99.90
17348;DHT22;8791;50.876;4.342;2022-08-03T03:41:41;21.80;99.90
17348;DHT22;8791;50.876;4.342;2022-08-03T03:44:08;21.80;99.90
17348;DHT22;8791;50.876;4.342;2022-08-03T03:46:35;21.80;99.90
17348;DHT22;8791;50.876;4.342;2022-08-03T03:49:04;21.80;99.90
17348;DHT22;8791;50.876;4.342;2022-08-03T03:51:31;21.70;99.90
17348;DHT22;8791;50.876;4.342;2022-08-03T03:53:59;21.60;99.90
17348;DHT22;8791;50.876;4.342;2022-08-03T03:56:27;21.60;99.90
17348;DHT22;8791;50.876;4.342;2022-08-03T03:58:55;21.60;99.90
17348;DHT22;8791;50.876;4.342;2022-08-03T04:01:22;21.50;99.90
17348;DHT22;8791;50.876;4.342;2022-08-03T04:03:50;21.50;99.90
17348;DHT22;8791;50.876;4.342;2022-08-03T04:06:17;21.60;99.90
17348;DHT22;8791;50.876;4.342;2022-08-03T04:09:02;21.60;99.90
17348;DHT22;8791;50.876;4.342;2022-08-03T04:11:50;21.50;99.90
17348;DHT22;8791;50.876;4.342;2022-08-03T04:14:22;21.50;99.90
17348;DHT22;8791;50.876;4.342;2022-08-03T04:16:54;21.50;99.90
17348;DHT22;8791;50.876;4.342;2022-08-03T04:19:25;21.40;99.90
17348;DHT22;8791;50.876;4.342;2022-08-03T04:21:58;21.40;99.90
17348;DHT22;8791;50.876;4.342;2022-08-03T04:24:29;21.40;99.90
17348;DHT22;8791;50.876;4.342;2022-08-03T04:26:58;21.40;99.90
17348;DHT22;8791;50.876;4.342;2022-08-03T04:29:28;21.60;99.90
17348;DHT22;8791;50.876;4.342;2022-08-03T04:31:57;21.50;99.90
17348;DHT22;8791;50.876;4.342;2022-08-03T04:34:25;21.40;99.90
17348;DHT22;8791;50.876;4.342;2022-08-03T04:36:58;21.30;99.90
17348;DHT22;8791;50.876;4.342;2022-08-03T04:39:26;21.40;99.90
17348;DHT22;8791;50.876;4.342;2022-08-03T04:41:59;21.50;99.90
17348;DHT22;8791;50.876;4.342;2022-08-03T04:44:29;21.70;99.90
17348;DHT22;8791;50.876;4.342;2022-08-03T04:46:57;21.80;99.90
17348;DHT22;8791;50.876;4.342;2022-08-03T04:49:25;22.10;99.90
17348;DHT22;8791;50.876;4.342;2022-08-03T04:51:52;22.20;99.90
17348;DHT22;8791;50.876;4.342;2022-08-03T04:54:19;22.70;99.90
17348;DHT22;8791;50.876;4.342;2022-08-03T04:56:46;23.00;99.90
17348;DHT22;8791;50.876;4.342;2022-08-03T04:59:13;23.70;99.90
17348;DHT22;8791;50.876;4.342;2022-08-03T05:01:43;24.10;99.90
17348;DHT22;8791;50.876;4.342;2022-08-03T05:04:10;24.60;99.90
17348;DHT22;8791;50.876;4.342;2022-08-03T05:06:37;25.00;99.90
17348;DHT22;8791;50.876;4.342;2022-08-03T05:09:04;25.80;99.90
17348;DHT22;8791;50.876;4.342;2022-08-03T05:11:30;26.60;99.90
17348;DHT22;8791;50.876;4.342;2022-08-03T05:13:57;27.40;99.90
17348;DHT22;8791;50.876;4.342;2022-08-03T05:16:24;28.10;99.90
17348;DHT22;8791;50.876;4.342;2022-08-03T05:18:52;28.80;99.90
17348;DHT22;8791;50.876;4.342;2022-08-03T05:21:19;29.10;99.90
17348;DHT22;8791;50.876;4.342;2022-08-03T05:23:46;29.10;99.90
17348;DHT22;8791;50.876;4.342;2022-08-03T05:26:13;28.80;99.90
17348;DHT22;8791;50.876;4.342;2022-08-03T05:28:40;28.40;99.90
17348;DHT22;8791;50.876;4.342;2022-08-03T05:31:07;27.40;99.90
17348;DHT22;8791;50.876;4.342;2022-08-03T05:33:34;26.90;99.90
17348;DHT22;8791;50.876;4.342;2022-08-03T05:36:03;26.30;99.90
17348;DHT22;8791;50.876;4.342;2022-08-03T05:38:30;25.40;99.90
17348;DHT22;8791;50.876;4.342;2022-08-03T05:40:57;25.00;99.90
17348;DHT22;8791;50.876;4.342;2022-08-03T05:43:24;24.80;99.90
17348;DHT22;8791;50.876;4.342;2022-08-03T05:45:51;24.50;99.90
17348;DHT22;8791;50.876;4.342;2022-08-03T05:48:18;24.10;99.90
17348;DHT22;8791;50.876;4.342;2022-08-03T05:50:44;24.00;99.90
17348;DHT22;8791;50.876;4.342;2022-08-03T05:53:13;23.70;99.90
17348;DHT22;8791;50.876;4.342;2022-08-03T05:55:39;23.50;99.90
17348;DHT22;8791;50.876;4.342;2022-08-03T05:58:06;23.50;99.90
17348;DHT22;8791;50.876;4.342;2022-08-03T06:00:33;23.40;99.90
17348;DHT22;8791;50.876;4.342;2022-08-03T06:03:00;23.30;99.90
17348;DHT22;8791;50.876;4.342;2022-08-03T06:05:27;23.30;99.90
17348;DHT22;8791;50.876;4.342;2022-08-03T06:07:55;23.30;99.90
17348;DHT22;8791;50.876;4.342;2022-08-03T06:10:24;23.30;99.90
17348;DHT22;8791;50.876;4.342;2022-08-03T06:12:51;23.30;99.90
17348;DHT22;8791;50.876;4.342;2022-08-03T06:15:17;23.10;99.90
17348;DHT22;8791;50.876;4.342;2022-08-03T06:17:45;23.00;99.90
17348;DHT22;8791;50.876;4.342;2022-08-03T06:20:14;22.90;99.90
17348;DHT22;8791;50.876;4.342;2022-08-03T06:22:41;23.10;99.90
17348;DHT22;8791;50.876;4.342;2022-08-03T06:25:08;23.00;99.90
17348;DHT22;8791;50.876;4.342;2022-08-03T06:27:37;23.00;99.90
17348;DHT22;8791;50.876;4.342;2022-08-03T06:30:06;23.00;99.90
17348;DHT22;8791;50.876;4.342;2022-08-03T06:32:35;23.00;99.90
17348;DHT22;8791;50.876;4.342;2022-08-03T06:35:02;23.10;99.90
17348;DHT22;8791;50.876;4.342;2022-08-03T06:37:29;23.30;99.90
17348;DHT22;8791;50.876;4.342;2022-08-03T06:39:56;23.50;99.90
17348;DHT22;8791;50.876;4.342;2022-08-03T06:42:22;23.40;99.90
17348;DHT22;8791;50.876;4.342;2022-08-03T06:44:51;23.60;99.90
17348;DHT22;8791;50.876;4.342;2022-08-03T06:47:17;23.80;99.90
17348;DHT22;8791;50.876;4.342;2022-08-03T06:49:44;23.90;99.90
17348;DHT22;8791;50.876;4.342;2022-08-03T06:52:11;23.90;99.90
17348;DHT22;8791;50.876;4.342;2022-08-03T06:54:38;23.80;99.90
17348;DHT22;8791;50.876;4.342;2022-08-03T06:57:05;23.70;99.90
17348;DHT22;8791;50.876;4.342;2022-08-03T06:59:34;23.80;99.90
17348;DHT22;8791;50.876;4.342;2022-08-03T07:02:02;23.90;99.90
17348;DHT22;8791;50.876;4.342;2022-08-03T07:04:29;24.10;99.90
17348;DHT22;8791;50.876;4.342;2022-08-03T07:06:56;24.00;99.90
17348;DHT22;8791;50.876;4.342;2022-08-03T07:09:23;23.80;99.90
17348;DHT22;8791;50.876;4.342;2022-08-03T07:11:51;24.00;99.90
17348;DHT22;8791;50.876;4.342;2022-08-03T07:14:18;24.10;99.90
17348;DHT22;8791;50.876;4.342;2022-08-03T07:16:45;24.10;99.90
17348;DHT22;8791;50.876;4.342;2022-08-03T07:19:13;24.30;99.90
17348;DHT22;8791;50.876;4.342;2022-08-03T07:21:40;24.40;99.90
17348;DHT22;8791;50.876;4.342;2022-08-03T07:24:07;24.40;99.90
17348;DHT22;8791;50.876;4.342;2022-08-03T07:26:33;24.60;99.90
17348;DHT22;8791;50.876;4.342;2022-08-03T07:29:00;24.80;99.90
17348;DHT22;8791;50.876;4.342;2022-08-03T07:31:27;25.00;99.90
17348;DHT22;8791;50.876;4.342;2022-08-03T07:33:54;25.10;99.90
17348;DHT22;8791;50.876;4.342;2022-08-03T07:36:22;25.20;99.90
17348;DHT22;8791;50.876;4.342;2022-08-03T07:38:50;25.40;99.90
17348;DHT22;8791;50.876;4.342;2022-08-03T07:41:17;25.40;99.90
17348;DHT22;8791;50.876;4.342;2022-08-03T07:43:43;25.60;99.90
17348;DHT22;8791;50.876;4.342;2022-08-03T07:46:10;25.70;99.90
17348;DHT22;8791;50.876;4.342;2022-08-03T07:48:37;25.70;99.90
17348;DHT22;8791;50.876;4.342;2022-08-03T07:51:04;25.80;99.90
17348;DHT22;8791;50.876;4.342;2022-08-03T07:53:32;25.80;99.90
17348;DHT22;8791;50.876;4.342;2022-08-03T07:55:59;25.80;99.90
17348;DHT22;8791;50.876;4.342;2022-08-03T07:58:26;26.00;99.90
17348;DHT22;8791;50.876;4.342;2022-08-03T08:00:53;26.00;99.90
17348;DHT22;8791;50.876;4.342;2022-08-03T08:03:20;26.10;99.90
17348;DHT22;8791;50.876;4.342;2022-08-03T08:05:47;26.30;99.90
17348;DHT22;8791;50.876;4.342;2022-08-03T08:08:14;26.50;99.90
17348;DHT22;8791;50.876;4.342;2022-08-03T08:10:42;26.40;99.90
17348;DHT22;8791;50.876;4.342;2022-08-03T08:13:09;26.30;99.90
17348;DHT22;8791;50.876;4.342;2022-08-03T08:15:36;26.40;99.90
17348;DHT22;8791;50.876;4.342;2022-08-03T08:18:03;26.40;99.90
17348;DHT22;8791;50.876;4.342;2022-08-03T08:20:33;26.50;99.90
17348;DHT22;8791;50.876;4.342;2022-08-03T08:23:04;26.50;99.90
17348;DHT22;8791;50.876;4.342;2022-08-03T08:25:32;26.30;99.90
17348;DHT22;8791;50.876;4.342;2022-08-03T08:28:00;26.30;99.90
17348;DHT22;8791;50.876;4.342;2022-08-03T08:30:29;26.40;99.90
17348;DHT22;8791;50.876;4.342;2022-08-03T08:32:57;26.50;99.90
17348;DHT22;8791;50.876;4.342;2022-08-03T08:35:24;26.60;99.90
17348;DHT22;8791;50.876;4.342;2022-08-03T08:37:51;26.60;99.90
17348;DHT22;8791;50.876;4.342;2022-08-03T08:40:20;26.60;99.90
17348;DHT22;8791;50.876;4.342;2022-08-03T08:42:47;26.70;99.90
17348;DHT22;8791;50.876;4.342;2022-08-03T08:45:16;26.70;99.90
17348;DHT22;8791;50.876;4.342;2022-08-03T08:47:45;26.80;99.90
17348;DHT22;8791;50.876;4.342;2022-08-03T08:50:14;26.80;99.90
17348;DHT22;8791;50.876;4.342;2022-08-03T08:52:42;26.90;99.90
17348;DHT22;8791;50.876;4.342;2022-08-03T08:55:13;26.90;99.90
17348;DHT22;8791;50.876;4.342;2022-08-03T08:57:44;27.00;99.90
17348;DHT22;8791;50.876;4.342;2022-08-03T09:00:13;27.10;99.90
17348;DHT22;8791;50.876;4.342;2022-08-03T09:02:43;27.20;99.90
17348;DHT22;8791;50.876;4.342;2022-08-03T09:05:11;27.30;99.90
17348;DHT22;8791;50.876;4.342;2022-08-03T09:07:39;27.40;99.90
17348;DHT22;8791;50.876;4.342;2022-08-03T09:10:06;27.50;99.90
17348;DHT22;8791;50.876;4.342;2022-08-03T09:12:37;27.70;99.90
17348;DHT22;8791;50.876;4.342;2022-08-03T09:15:18;27.60;99.90
17348;DHT22;8791;50.876;4.342;2022-08-03T09:17:47;27.80;99.90
17348;DHT22;8791;50.876;4.342;2022-08-03T09:20:15;28.00;99.90
17348;DHT22;8791;50.876;4.342;2022-08-03T09:22:53;28.20;99.90
17348;DHT22;8791;50.876;4.342;2022-08-03T09:25:26;28.20;99.90
17348;DHT22;8791;50.876;4.342;2022-08-03T09:27:53;28.00;99.90
17348;DHT22;8791;50.876;4.342;2022-08-03T09:30:20;28.10;99.90
17348;DHT22;8791;50.876;4.342;2022-08-03T09:32:48;28.10;99.90
17348;DHT22;8791;50.876;4.342;2022-08-03T09:35:15;28.20;99.90
17348;DHT22;8791;50.876;4.342;2022-08-03T09:37:42;28.20;99.90
17348;DHT22;8791;50.876;4.342;2022-08-03T09:40:09;28.30;99.90
17348;DHT22;8791;50.876;4.342;2022-08-03T09:42:55;28.60;99.90
17348;DHT22;8791;50.876;4.342;2022-08-03T09:45:25;28.60;99.90
17348;DHT22;8791;50.876;4.342;2022-08-03T09:47:54;28.70;99.90
17348;DHT22;8791;50.876;4.342;2022-08-03T09:50:21;28.60;99.90
17348;DHT22;8791;50.876;4.342;2022-08-03T09:52:50;28.80;99.90
17348;DHT22;8791;50.876;4.342;2022-08-03T09:55:17;29.00;99.90
17348;DHT22;8791;50.876;4.342;2022-08-03T09:57:47;29.00;99.90
17348;DHT22;8791;50.876;4.342;2022-08-03T10:00:16;28.90;99.90
17348;DHT22;8791;50.876;4.342;2022-08-03T10:02:43;29.00;99.90
17348;DHT22;8791;50.876;4.342;2022-08-03T10:05:12;29.10;99.90
17348;DHT22;8791;50.876;4.342;2022-08-03T10:07:42;29.20;99.90
17348;DHT22;8791;50.876;4.342;2022-08-03T10:10:10;29.40;99.90
17348;DHT22;8791;50.876;4.342;2022-08-03T10:12:38;29.40;99.90
17348;DHT22;8791;50.876;4.342;2022-08-03T10:15:07;29.40;99.90
17348;DHT22;8791;50.876;4.342;2022-08-03T10:17:34;29.40;99.90
17348;DHT22;8791;50.876;4.342;2022-08-03T10:20:01;29.30;99.90
17348;DHT22;8791;50.876;4.342;2022-08-03T10:22:33;29.30;99.90
17348;DHT22;8791;50.876;4.342;2022-08-03T10:25:04;29.50;99.90
17348;DHT22;8791;50.876;4.342;2022-08-03T10:27:36;29.60;99.90
17348;DHT22;8791;50.876;4.342;2022-08-03T10:30:05;29.50;99.90
17348;DHT22;8791;50.876;4.342;2022-08-03T10:32:34;29.40;99.90
17348;DHT22;8791;50.876;4.342;2022-08-03T10:35:06;29.60;99.90
17348;DHT22;8791;50.876;4.342;2022-08-03T10:37:39;29.80;99.90
17348;DHT22;8791;50.876;4.342;2022-08-03T10:40:11;30.00;99.90
17348;DHT22;8791;50.876;4.342;2022-08-03T10:42:40;30.00;99.90
17348;DHT22;8791;50.876;4.342;2022-08-03T10:45:13;30.20;99.90
17348;DHT22;8791;50.876;4.342;2022-08-03T10:47:40;30.30;99.90
17348;DHT22;8791;50.876;4.342;2022-08-03T10:50:08;30.40;99.90
17348;DHT22;8791;50.876;4.342;2022-08-03T10:52:53;30.50;99.90
17348;DHT22;8791;50.876;4.342;2022-08-03T10:55:29;30.60;99.90
17348;DHT22;8791;50.876;4.342;2022-08-03T10:58:14;30.50;99.90
17348;DHT22;8791;50.876;4.342;2022-08-03T11:00:48;30.50;99.90
17348;DHT22;8791;50.876;4.342;2022-08-03T11:03:15;30.50;99.90
17348;DHT22;8791;50.876;4.342;2022-08-03T11:05:44;30.40;99.90
17348;DHT22;8791;50.876;4.342;2022-08-03T11:08:23;30.40;99.90
17348;DHT22;8791;50.876;4.342;2022-08-03T11:10:52;30.50;99.90
17348;DHT22;8791;50.876;4.342;2022-08-03T11:13:21;30.70;99.90
17348;DHT22;8791;50.876;4.342;2022-08-03T11:15:51;30.80;99.90
17348;DHT22;8791;50.876;4.342;2022-08-03T11:18:18;30.90;99.90
17348;DHT22;8791;50.876;4.342;2022-08-03T11:20:47;30.90;99.90
17348;DHT22;8791;50.876;4.342;2022-08-03T11:23:15;30.90;99.90
17348;DHT22;8791;50.876;4.342;2022-08-03T11:26:13;30.80;99.90
17348;DHT22;8791;50.876;4.342;2022-08-03T11:28:41;31.00;99.90
17348;DHT22;8791;50.876;4.342;2022-08-03T11:31:44;31.30;99.90
17348;DHT22;8791;50.876;4.342;2022-08-03T11:34:13;31.30;99.90
17348;DHT22;8791;50.876;4.342;2022-08-03T11:39:51;31.10;99.90
17348;DHT22;8791;50.876;4.342;2022-08-03T11:42:42;31.20;99.90
17348;DHT22;8791;50.876;4.342;2022-08-03T11:45:15;31.10;99.90
17348;DHT22;8791;50.876;4.342;2022-08-03T11:47:44;31.10;99.90
17348;DHT22;8791;50.876;4.342;2022-08-03T11:50:11;31.40;99.90
17348;DHT22;8791;50.876;4.342;2022-08-03T11:52:39;31.30;99.90
17348;DHT22;8791;50.876;4.342;2022-08-03T11:55:11;31.40;99.90
17348;DHT22;8791;50.876;4.342;2022-08-03T11:57:39;31.20;99.90
17348;DHT22;8791;50.876;4.342;2022-08-03T12:00:22;31.30;99.90
17348;DHT22;8791;50.876;4.342;2022-08-03T12:03:03;31.40;99.90
17348;DHT22;8791;50.876;4.342;2022-08-03T12:05:42;31.40;99.90
17348;DHT22;8791;50.876;4.342;2022-08-03T12:08:11;31.50;99.90
17348;DHT22;8791;50.876;4.342;2022-08-03T12:10:39;31.60;99.90
17348;DHT22;8791;50.876;4.342;2022-08-03T12:13:08;31.50;99.90
17348;DHT22;8791;50.876;4.342;2022-08-03T12:15:35;31.50;99.90
17348;DHT22;8791;50.876;4.342;2022-08-03T12:18:11;31.60;99.90
17348;DHT22;8791;50.876;4.342;2022-08-03T12:20:39;31.60;99.90
17348;DHT22;8791;50.876;4.342;2022-08-03T12:23:07;31.70;99.90
17348;DHT22;8791;50.876;4.342;2022-08-03T12:25:36;31.90;99.90
17348;DHT22;8791;50.876;4.342;2022-08-03T12:28:16;32.10;99.90
17348;DHT22;8791;50.876;4.342;2022-08-03T12:30:45;32.20;99.90
17348;DHT22;8791;50.876;4.342;2022-08-03T12:33:23;32.10;99.90
17348;DHT22;8791;50.876;4.342;2022-08-03T12:36:03;32.00;99.90
17348;DHT22;8791;50.876;4.342;2022-08-03T12:38:30;32.00;99.90
17348;DHT22;8791;50.876;4.342;2022-08-03T12:41:02;32.10;99.90
17348;DHT22;8791;50.876;4.342;2022-08-03T12:43:31;32.10;99.90
17348;DHT22;8791;50.876;4.342;2022-08-03T12:46:12;32.00;99.90
17348;DHT22;8791;50.876;4.342;2022-08-03T12:49:07;32.20;99.90
17348;DHT22;8791;50.876;4.342;2022-08-03T12:51:36;32.30;99.90
17348;DHT22;8791;50.876;4.342;2022-08-03T12:54:04;32.40;99.90
17348;DHT22;8791;50.876;4.342;2022-08-03T12:56:31;32.50;99.90
17348;DHT22;8791;50.876;4.342;2022-08-03T12:59:00;32.40;99.90
17348;DHT22;8791;50.876;4.342;2022-08-03T13:01:35;32.50;99.20
17348;DHT22;8791;50.876;4.342;2022-08-03T13:04:02;32.70;99.70
17348;DHT22;8791;50.876;4.342;2022-08-03T13:06:30;32.70;99.70
17348;DHT22;8791;50.876;4.342;2022-08-03T13:09:02;32.50;99.40
17348;DHT22;8791;50.876;4.342;2022-08-03T13:11:29;32.60;99.60
17348;DHT22;8791;50.876;4.342;2022-08-03T13:13:56;32.50;99.40
17348;DHT22;8791;50.876;4.342;2022-08-03T13:16:24;32.60;99.40
17348;DHT22;8791;50.876;4.342;2022-08-03T13:18:51;32.70;97.90
17348;DHT22;8791;50.876;4.342;2022-08-03T13:21:20;32.80;97.30
17348;DHT22;8791;50.876;4.342;2022-08-03T13:23:47;32.70;97.50
17348;DHT22;8791;50.876;4.342;2022-08-03T13:26:14;32.80;97.90
17348;DHT22;8791;50.876;4.342;2022-08-03T13:28:41;32.80;97.50
17348;DHT22;8791;50.876;4.342;2022-08-03T13:31:08;32.80;97.50
17348;DHT22;8791;50.876;4.342;2022-08-03T13:33:36;32.90;96.90
17348;DHT22;8791;50.876;4.342;2022-08-03T13:36:05;32.90;96.60
17348;DHT22;8791;50.876;4.342;2022-08-03T13:38:32;32.80;96.30
17348;DHT22;8791;50.876;4.342;2022-08-03T13:41:00;32.80;96.20
17348;DHT22;8791;50.876;4.342;2022-08-03T13:43:27;32.90;95.80
17348;DHT22;8791;50.876;4.342;2022-08-03T13:45:54;32.90;96.00
17348;DHT22;8791;50.876;4.342;2022-08-03T13:48:21;32.90;95.40
17348;DHT22;8791;50.876;4.342;2022-08-03T13:50:49;32.80;95.70
17348;DHT22;8791;50.876;4.342;2022-08-03T13:53:16;32.80;96.30
17348;DHT22;8791;50.876;4.342;2022-08-03T13:55:42;32.70;96.00
17348;DHT22;8791;50.876;4.342;2022-08-03T13:58:09;32.70;95.60
17348;DHT22;8791;50.876;4.342;2022-08-03T14:00:37;32.70;95.90
17348;DHT22;8791;50.876;4.342;2022-08-03T14:03:04;32.90;95.40
17348;DHT22;8791;50.876;4.342;2022-08-03T14:05:31;33.00;94.90
17348;DHT22;8791;50.876;4.342;2022-08-03T14:07:59;33.10;95.20
17348;DHT22;8791;50.876;4.342;2022-08-03T14:10:26;33.00;94.20
17348;DHT22;8791;50.876;4.342;2022-08-03T14:12:53;32.90;94.30
17348;DHT22;8791;50.876;4.342;2022-08-03T14:15:21;33.20;94.70
17348;DHT22;8791;50.876;4.342;2022-08-03T14:17:48;33.00;94.40
17348;DHT22;8791;50.876;4.342;2022-08-03T14:20:15;32.80;94.50
17348;DHT22;8791;50.876;4.342;2022-08-03T14:22:42;32.80;94.20
17348;DHT22;8791;50.876;4.342;2022-08-03T14:25:10;32.90;93.80
17348;DHT22;8791;50.876;4.342;2022-08-03T14:27:37;33.00;93.70
17348;DHT22;8791;50.876;4.342;2022-08-03T14:30:05;33.00;93.40
17348;DHT22;8791;50.876;4.342;2022-08-03T14:32:32;33.00;93.20
17348;DHT22;8791;50.876;4.342;2022-08-03T14:34:58;33.00;93.20
17348;DHT22;8791;50.876;4.342;2022-08-03T14:37:25;33.00;93.50
17348;DHT22;8791;50.876;4.342;2022-08-03T14:39:52;33.20;92.60
17348;DHT22;8791;50.876;4.342;2022-08-03T14:42:20;33.20;92.10
17348;DHT22;8791;50.876;4.342;2022-08-03T14:44:48;33.10;92.40
17348;DHT22;8791;50.876;4.342;2022-08-03T14:47:15;33.20;92.20
17348;DHT22;8791;50.876;4.342;2022-08-03T14:49:42;33.20;92.30
17348;DHT22;8791;50.876;4.342;2022-08-03T14:52:09;33.30;91.80
17348;DHT22;8791;50.876;4.342;2022-08-03T14:54:35;33.40;91.90
17348;DHT22;8791;50.876;4.342;2022-08-03T14:57:03;33.20;91.80
17348;DHT22;8791;50.876;4.342;2022-08-03T14:59:31;33.20;91.50
17348;DHT22;8791;50.876;4.342;2022-08-03T15:01:58;33.20;92.10
17348;DHT22;8791;50.876;4.342;2022-08-03T15:04:25;33.30;91.80
17348;DHT22;8791;50.876;4.342;2022-08-03T15:06:51;33.20;91.70
17348;DHT22;8791;50.876;4.342;2022-08-03T15:09:18;33.20;91.50
17348;DHT22;8791;50.876;4.342;2022-08-03T15:11:45;33.20;91.70
17348;DHT22;8791;50.876;4.342;2022-08-03T15:14:12;33.20;91.50
17348;DHT22;8791;50.876;4.342;2022-08-03T15:16:40;33.30;92.10
17348;DHT22;8791;50.876;4.342;2022-08-03T15:19:07;33.40;91.70
17348;DHT22;8791;50.876;4.342;2022-08-03T15:21:34;33.40;92.10
17348;DHT22;8791;50.876;4.342;2022-08-03T15:24:01;33.30;91.90
17348;DHT22;8791;50.876;4.342;2022-08-03T15:26:28;33.20;91.50
17348;DHT22;8791;50.876;4.342;2022-08-03T15:28:56;33.10;91.10
17348;DHT22;8791;50.876;4.342;2022-08-03T15:31:23;33.40;90.90
17348;DHT22;8791;50.876;4.342;2022-08-03T15:33:53;33.30;90.70
17348;DHT22;8791;50.876;4.342;2022-08-03T15:36:21;33.30;90.90
17348;DHT22;8791;50.876;4.342;2022-08-03T15:38:49;33.40;90.80
17348;DHT22;8791;50.876;4.342;2022-08-03T15:41:16;33.80;90.60
17348;DHT22;8791;50.876;4.342;2022-08-03T15:43:45;34.80;88.70
17348;DHT22;8791;50.876;4.342;2022-08-03T15:46:12;36.20;84.10
17348;DHT22;8791;50.876;4.342;2022-08-03T15:48:39;37.10;81.10
17348;DHT22;8791;50.876;4.342;2022-08-03T15:51:08;38.00;78.00
17348;DHT22;8791;50.876;4.342;2022-08-03T15:53:35;39.00;74.20
17348;DHT22;8791;50.876;4.342;2022-08-03T15:56:03;39.70;72.40
17348;DHT22;8791;50.876;4.342;2022-08-03T15:58:33;39.40;68.10